sensor_id;sensor_type;location;lat;lon;timestamp;temperature;humidity
43183;DHT22;28802;38.578;-0.066;2022-11-12T17:53:14;21.10;99.90
43183;DHT22;28802;38.578;-0.066;2022-11-12T17:55:59;21.00;99.90
43183;DHT22;28802;38.578;-0.066;2022-11-12T17:58:44;20.90;99.90
43183;DHT22;28802;38.578;-0.066;2022-11-12T18:01:31;20.90;99.90
43183;DHT22;28802;38.578;-0.066;2022-11-12T18:04:19;20.80;99.90
43183;DHT22;28802;38.578;-0.066;2022-11-12T18:07:04;20.70;99.90
43183;DHT22;28802;38.578;-0.066;2022-11-12T18:09:49;20.70;99.90
43183;DHT22;28802;38.578;-0.066;2022-11-12T18:12:33;20.70;99.90
43183;DHT22;28802;38.578;-0.066;2022-11-12T18:15:17;20.70;99.90
43183;DHT22;28802;38.578;-0.066;2022-11-12T18:18:03;20.70;99.90
43183;DHT22;28802;38.578;-0.066;2022-11-12T18:20:48;20.70;99.90
43183;DHT22;28802;38.578;-0.066;2022-11-12T18:23:37;20.70;99.90
43183;DHT22;28802;38.578;-0.066;2022-11-12T18:26:22;20.60;99.90
43183;DHT22;28802;38.578;-0.066;2022-11-12T18:29:08;20.50;99.90
43183;DHT22;28802;38.578;-0.066;2022-11-12T18:31:53;20.60;99.90
43183;DHT22;28802;38.578;-0.066;2022-11-12T18:34:37;20.50;99.90
43183;DHT22;28802;38.578;-0.066;2022-11-12T18:37:25;20.60;99.90
43183;DHT22;28802;38.578;-0.066;2022-11-12T18:40:09;20.60;99.90
43183;DHT22;28802;38.578;-0.066;2022-11-12T18:42:54;20.60;99.90
43183;DHT22;28802;38.578;-0.066;2022-11-12T18:45:39;20.60;99.90
43183;DHT22;28802;38.578;-0.066;2022-11-12T18:48:24;20.60;99.90
43183;DHT22;28802;38.578;-0.066;2022-11-12T18:51:11;20.40;99.90
43183;DHT22;28802;38.578;-0.066;2022-11-12T18:54:00;20.40;99.90
43183;DHT22;28802;38.578;-0.066;2022-11-12T18:56:45;20.40;99.90
43183;DHT22;28802;38.578;-0.066;2022-11-12T18:59:30;20.40;99.90
43183;DHT22;28802;38.578;-0.066;2022-11-12T19:02:15;20.30;99.90
43183;DHT22;28802;38.578;-0.066;2022-11-12T19:05:00;20.30;99.90
43183;DHT22;28802;38.578;-0.066;2022-11-12T19:07:44;20.20;99.90
43183;DHT22;28802;38.578;-0.066;2022-11-12T19:10:29;20.10;99.90
43183;DHT22;28802;38.578;-0.066;2022-11-12T19:13:17;20.00;99.90
43183;DHT22;28802;38.578;-0.066;2022-11-12T19:16:13;19.90;99.90
43183;DHT22;28802;38.578;-0.066;2022-11-12T19:19:00;19.90;99.90
43183;DHT22;28802;38.578;-0.066;2022-11-12T19:21:44;19.90;99.90
43183;DHT22;28802;38.578;-0.066;2022-11-12T19:24:29;20.00;99.90
43183;DHT22;28802;38.578;-0.066;2022-11-12T19:27:14;19.90;99.90
43183;DHT22;28802;38.578;-0.066;2022-11-12T19:30:01;19.80;99.90
43183;DHT22;28802;38.578;-0.066;2022-11-12T19:32:48;19.80;99.90
43183;DHT22;28802;38.578;-0.066;2022-11-12T19:35:38;19.70;99.90
43183;DHT22;28802;38.578;-0.066;2022-11-12T19:38:23;19.70;99.90
43183;DHT22;28802;38.578;-0.066;2022-11-12T19:41:12;19.60;99.90
43183;DHT22;28802;38.578;-0.066;2022-11-12T19:43:57;19.60;99.90
43183;DHT22;28802;38.578;-0.066;2022-11-12T19:46:41;19.60;99.90
43183;DHT22;28802;38.578;-0.066;2022-11-12T19:49:26;19.60;99.90
43183;DHT22;28802;38.578;-0.066;2022-11-12T19:52:11;19.60;99.90
43183;DHT22;28802;38.578;-0.066;2022-11-12T19:54:56;19.50;99.90
43183;DHT22;28802;38.578;-0.066;2022-11-12T19:57:43;19.50;99.90
43183;DHT22;28802;38.578;-0.066;2022-11-12T20:00:28;19.40;99.90
43183;DHT22;28802;38.578;-0.066;2022-11-12T20:03:13;19.50;99.90
43183;DHT22;28802;38.578;-0.066;2022-11-12T20:06:08;19.40;99.90
43183;DHT22;28802;38.578;-0.066;2022-11-12T20:08:53;19.40;99.90
43183;DHT22;28802;38.578;-0.066;2022-11-12T20:11:41;19.40;99.90
43183;DHT22;28802;38.578;-0.066;2022-11-12T20:14:28;19.40;99.90
43183;DHT22;28802;38.578;-0.066;2022-11-12T20:17:13;19.40;99.90
43183;DHT22;28802;38.578;-0.066;2022-11-12T20:20:05;19.40;99.90
43183;DHT22;28802;38.578;-0.066;2022-11-12T20:22:50;19.30;99.90
43183;DHT22;28802;38.578;-0.066;2022-11-12T20:25:35;19.20;99.90
43183;DHT22;28802;38.578;-0.066;2022-11-12T20:28:20;19.20;99.90
43183;DHT22;28802;38.578;-0.066;2022-11-12T20:31:08;19.10;99.90
43183;DHT22;28802;38.578;-0.066;2022-11-12T20:33:55;19.10;99.90
43183;DHT22;28802;38.578;-0.066;2022-11-12T20:36:40;19.10;99.90
43183;DHT22;28802;38.578;-0.066;2022-11-12T20:39:25;19.10;99.90
43183;DHT22;28802;38.578;-0.066;2022-11-12T20:42:10;19.10;99.90
43183;DHT22;28802;38.578;-0.066;2022-11-12T20:44:55;19.10;99.90
43183;DHT22;28802;38.578;-0.066;2022-11-12T20:47:39;19.10;99.90
43183;DHT22;28802;38.578;-0.066;2022-11-12T20:50:24;19.10;99.90
43183;DHT22;28802;38.578;-0.066;2022-11-12T20:53:08;19.10;99.90
43183;DHT22;28802;38.578;-0.066;2022-11-12T20:55:53;19.10;99.90
43183;DHT22;28802;38.578;-0.066;2022-11-12T20:58:38;19.10;99.90
43183;DHT22;28802;38.578;-0.066;2022-11-12T21:01:24;19.10;99.90
43183;DHT22;28802;38.578;-0.066;2022-11-12T21:04:10;19.10;99.90
43183;DHT22;28802;38.578;-0.066;2022-11-12T21:06:55;19.10;99.90
43183;DHT22;28802;38.578;-0.066;2022-11-12T21:09:43;18.90;99.90
43183;DHT22;28802;38.578;-0.066;2022-11-12T21:12:29;19.00;99.90
43183;DHT22;28802;38.578;-0.066;2022-11-12T21:15:16;18.90;99.90
43183;DHT22;28802;38.578;-0.066;2022-11-12T21:18:01;18.90;99.90
43183;DHT22;28802;38.578;-0.066;2022-11-12T21:20:46;19.00;99.90
43183;DHT22;28802;38.578;-0.066;2022-11-12T21:23:33;19.00;99.90
43183;DHT22;28802;38.578;-0.066;2022-11-12T21:26:21;19.00;99.90
43183;DHT22;28802;38.578;-0.066;2022-11-12T21:29:08;18.90;99.90
43183;DHT22;28802;38.578;-0.066;2022-11-12T21:31:56;18.90;99.90
43183;DHT22;28802;38.578;-0.066;2022-11-12T21:34:40;18.90;99.90
43183;DHT22;28802;38.578;-0.066;2022-11-12T21:37:25;18.90;99.90
43183;DHT22;28802;38.578;-0.066;2022-11-12T21:40:10;18.90;99.90
43183;DHT22;28802;38.578;-0.066;2022-11-12T21:42:58;18.90;99.90
43183;DHT22;28802;38.578;-0.066;2022-11-12T21:45:46;18.90;99.90
43183;DHT22;28802;38.578;-0.066;2022-11-12T21:48:30;19.00;99.90
43183;DHT22;28802;38.578;-0.066;2022-11-12T21:51:15;19.00;99.90
43183;DHT22;28802;38.578;-0.066;2022-11-12T21:54:05;18.90;99.90
43183;DHT22;28802;38.578;-0.066;2022-11-12T21:56:50;18.90;99.90
43183;DHT22;28802;38.578;-0.066;2022-11-12T21:59:34;18.90;99.90
43183;DHT22;28802;38.578;-0.066;2022-11-12T22:02:19;18.80;99.90
43183;DHT22;28802;38.578;-0.066;2022-11-12T22:05:04;18.80;99.90
43183;DHT22;28802;38.578;-0.066;2022-11-12T22:07:49;18.90;99.90
43183;DHT22;28802;38.578;-0.066;2022-11-12T22:10:35;18.90;99.90
43183;DHT22;28802;38.578;-0.066;2022-11-12T22:13:19;18.90;99.90
43183;DHT22;28802;38.578;-0.066;2022-11-12T22:18:57;18.90;99.90
43183;DHT22;28802;38.578;-0.066;2022-11-12T22:21:44;19.10;99.90
43183;DHT22;28802;38.578;-0.066;2022-11-12T22:24:29;19.10;99.90
43183;DHT22;28802;38.578;-0.066;2022-11-12T22:27:14;19.00;99.90
43183;DHT22;28802;38.578;-0.066;2022-11-12T22:29:59;19.00;99.90
43183;DHT22;28802;38.578;-0.066;2022-11-12T22:32:43;18.90;99.90
43183;DHT22;28802;38.578;-0.066;2022-11-12T22:35:27;18.80;99.90
43183;DHT22;28802;38.578;-0.066;2022-11-12T22:38:12;18.80;99.90
43183;DHT22;28802;38.578;-0.066;2022-11-12T22:41:05;18.80;99.90
43183;DHT22;28802;38.578;-0.066;2022-11-12T22:43:51;18.80;99.90
43183;DHT22;28802;38.578;-0.066;2022-11-12T22:46:36;18.90;99.90
43183;DHT22;28802;38.578;-0.066;2022-11-12T22:49:20;18.80;99.90
43183;DHT22;28802;38.578;-0.066;2022-11-12T22:52:05;18.90;99.90
43183;DHT22;28802;38.578;-0.066;2022-11-12T22:54:49;18.80;99.90
43183;DHT22;28802;38.578;-0.066;2022-11-12T22:57:34;18.70;99.90
43183;DHT22;28802;38.578;-0.066;2022-11-12T23:00:28;18.60;99.90
43183;DHT22;28802;38.578;-0.066;2022-11-12T23:03:13;18.50;99.90
43183;DHT22;28802;38.578;-0.066;2022-11-12T23:05:58;18.40;99.90
43183;DHT22;28802;38.578;-0.066;2022-11-12T23:08:43;18.50;99.90
43183;DHT22;28802;38.578;-0.066;2022-11-12T23:11:28;18.50;99.90
43183;DHT22;28802;38.578;-0.066;2022-11-12T23:14:12;18.40;99.90
43183;DHT22;28802;38.578;-0.066;2022-11-12T23:16:58;18.40;99.90
43183;DHT22;28802;38.578;-0.066;2022-11-12T23:19:43;18.40;99.90
43183;DHT22;28802;38.578;-0.066;2022-11-12T23:22:28;18.50;99.90
43183;DHT22;28802;38.578;-0.066;2022-11-12T23:25:13;18.40;99.90
43183;DHT22;28802;38.578;-0.066;2022-11-12T23:27:57;18.40;99.90
43183;DHT22;28802;38.578;-0.066;2022-11-12T23:30:47;18.40;99.90
43183;DHT22;28802;38.578;-0.066;2022-11-12T23:33:34;18.50;99.90
43183;DHT22;28802;38.578;-0.066;2022-11-12T23:36:19;18.60;99.90
43183;DHT22;28802;38.578;-0.066;2022-11-12T23:39:04;18.60;99.90
43183;DHT22;28802;38.578;-0.066;2022-11-12T23:41:49;18.60;99.90
43183;DHT22;28802;38.578;-0.066;2022-11-12T23:44:34;18.60;99.90
43183;DHT22;28802;38.578;-0.066;2022-11-12T23:47:19;18.50;99.90
43183;DHT22;28802;38.578;-0.066;2022-11-12T23:50:04;18.50;99.90
43183;DHT22;28802;38.578;-0.066;2022-11-12T23:52:48;18.50;99.90
43183;DHT22;28802;38.578;-0.066;2022-11-12T23:55:33;18.50;99.90
43183;DHT22;28802;38.578;-0.066;2022-11-12T23:58:18;18.50;99.90
